Chesterfield, Missouri
Current Conditions -  °F | °C
As of 12:54 PM on Friday 21 Nov 2014 (Local Time) from KSUS Reporting Station
Broken Clouds Broken Clouds  
Wind Chill:   Ceiling: 5000
Heat Index:   Visibility: 10mi
Dew Point: -7°   Wind: 9mph
Humidity: 45%   Direction: 140°SE
Pressure: 30.34"   Gusts: 16mph
Location:  38.65°N, 90.55°W
Report Text: KSUS 211854Z 14008G14KT 10SM BKN050 04/M07 A3034 RMK AO2 SLP283 T00441067
Loading
Personal Weather Stations






























Interactive Weather Map New forecast layout! Learn more

10-Day Weather Forecast

Advertisements
Track Severe Weather on mobile